sensor_id;sensor_type;location;lat;lon;timestamp;P1;durP1;ratioP1;P2;durP2;ratioP2
6947;SDS011;3513;47.664;9.162;2022-12-16T00:00:21;46.00;;;21.70;;
6947;SDS011;3513;47.664;9.162;2022-12-16T00:02:48;48.40;;;23.17;;
6947;SDS011;3513;47.664;9.162;2022-12-16T00:05:14;51.57;;;22.27;;
6947;SDS011;3513;47.664;9.162;2022-12-16T00:07:40;47.80;;;24.13;;
6947;SDS011;3513;47.664;9.162;2022-12-16T00:10:06;46.73;;;20.90;;
6947;SDS011;3513;47.664;9.162;2022-12-16T00:12:32;33.23;;;18.50;;
6947;SDS011;3513;47.664;9.162;2022-12-16T00:14:58;41.67;;;20.90;;
6947;SDS011;3513;47.664;9.162;2022-12-16T00:17:24;41.60;;;20.00;;
6947;SDS011;3513;47.664;9.162;2022-12-16T00:19:49;38.00;;;19.00;;
6947;SDS011;3513;47.664;9.162;2022-12-16T00:22:15;49.77;;;21.13;;
6947;SDS011;3513;47.664;9.162;2022-12-16T00:24:40;40.13;;;19.93;;
6947;SDS011;3513;47.664;9.162;2022-12-16T00:27:06;34.73;;;18.80;;
6947;SDS011;3513;47.664;9.162;2022-12-16T00:29:32;29.43;;;16.43;;
6947;SDS011;3513;47.664;9.162;2022-12-16T00:31:57;35.50;;;19.53;;
6947;SDS011;3513;47.664;9.162;2022-12-16T00:34:23;31.47;;;16.67;;
6947;SDS011;3513;47.664;9.162;2022-12-16T00:36:49;30.63;;;16.20;;
6947;SDS011;3513;47.664;9.162;2022-12-16T00:39:14;28.37;;;15.03;;
6947;SDS011;3513;47.664;9.162;2022-12-16T00:41:40;30.03;;;16.00;;
6947;SDS011;3513;47.664;9.162;2022-12-16T00:44:06;31.53;;;16.80;;
6947;SDS011;3513;47.664;9.162;2022-12-16T00:46:31;32.50;;;15.87;;
6947;SDS011;3513;47.664;9.162;2022-12-16T00:48:57;27.37;;;15.17;;
6947;SDS011;3513;47.664;9.162;2022-12-16T00:51:22;32.73;;;15.60;;
6947;SDS011;3513;47.664;9.162;2022-12-16T00:53:48;33.80;;;16.23;;
6947;SDS011;3513;47.664;9.162;2022-12-16T00:56:13;26.73;;;14.73;;
6947;SDS011;3513;47.664;9.162;2022-12-16T00:58:39;29.60;;;15.47;;
6947;SDS011;3513;47.664;9.162;2022-12-16T01:01:05;30.60;;;16.57;;
6947;SDS011;3513;47.664;9.162;2022-12-16T01:03:32;29.20;;;17.27;;
6947;SDS011;3513;47.664;9.162;2022-12-16T01:05:58;29.63;;;16.53;;
6947;SDS011;3513;47.664;9.162;2022-12-16T01:08:23;25.07;;;14.10;;
6947;SDS011;3513;47.664;9.162;2022-12-16T01:10:50;27.97;;;14.27;;
6947;SDS011;3513;47.664;9.162;2022-12-16T01:13:17;30.27;;;16.50;;
6947;SDS011;3513;47.664;9.162;2022-12-16T01:15:43;29.60;;;15.60;;
6947;SDS011;3513;47.664;9.162;2022-12-16T01:18:08;27.93;;;15.23;;
6947;SDS011;3513;47.664;9.162;2022-12-16T01:20:35;25.93;;;15.33;;
6947;SDS011;3513;47.664;9.162;2022-12-16T01:23:00;29.07;;;16.27;;
6947;SDS011;3513;47.664;9.162;2022-12-16T01:25:26;27.70;;;15.43;;
6947;SDS011;3513;47.664;9.162;2022-12-16T01:27:52;29.90;;;17.73;;
6947;SDS011;3513;47.664;9.162;2022-12-16T01:30:17;29.40;;;17.07;;
6947;SDS011;3513;47.664;9.162;2022-12-16T01:32:43;27.13;;;15.50;;
6947;SDS011;3513;47.664;9.162;2022-12-16T01:35:09;31.27;;;16.80;;
6947;SDS011;3513;47.664;9.162;2022-12-16T01:37:35;25.10;;;15.37;;
6947;SDS011;3513;47.664;9.162;2022-12-16T01:40:00;26.57;;;14.43;;
6947;SDS011;3513;47.664;9.162;2022-12-16T01:42:26;29.50;;;15.80;;
6947;SDS011;3513;47.664;9.162;2022-12-16T01:44:55;26.03;;;14.97;;
6947;SDS011;3513;47.664;9.162;2022-12-16T01:47:25;26.10;;;15.90;;
6947;SDS011;3513;47.664;9.162;2022-12-16T01:50:14;23.77;;;15.60;;
6947;SDS011;3513;47.664;9.162;2022-12-16T01:52:41;32.57;;;15.30;;
6947;SDS011;3513;47.664;9.162;2022-12-16T01:55:20;32.60;;;14.60;;
6947;SDS011;3513;47.664;9.162;2022-12-16T01:57:52;25.83;;;15.00;;
6947;SDS011;3513;47.664;9.162;2022-12-16T02:00:20;27.47;;;15.70;;
6947;SDS011;3513;47.664;9.162;2022-12-16T02:02:46;23.73;;;13.90;;
6947;SDS011;3513;47.664;9.162;2022-12-16T02:05:13;28.40;;;14.13;;
6947;SDS011;3513;47.664;9.162;2022-12-16T02:10:20;24.23;;;14.23;;
6947;SDS011;3513;47.664;9.162;2022-12-16T02:12:57;23.40;;;14.37;;
6947;SDS011;3513;47.664;9.162;2022-12-16T02:18:24;23.27;;;13.77;;
6947;SDS011;3513;47.664;9.162;2022-12-16T02:29:15;26.37;;;15.40;;
6947;SDS011;3513;47.664;9.162;2022-12-16T02:32:09;31.37;;;18.03;;
6947;SDS011;3513;47.664;9.162;2022-12-16T02:40:16;25.20;;;15.37;;
6947;SDS011;3513;47.664;9.162;2022-12-16T02:42:57;24.33;;;15.70;;
6947;SDS011;3513;47.664;9.162;2022-12-16T02:45:28;27.57;;;16.63;;
6947;SDS011;3513;47.664;9.162;2022-12-16T02:47:56;29.40;;;16.00;;
6947;SDS011;3513;47.664;9.162;2022-12-16T02:50:25;26.47;;;15.70;;
6947;SDS011;3513;47.664;9.162;2022-12-16T02:52:57;129.27;;;44.37;;
6947;SDS011;3513;47.664;9.162;2022-12-16T02:55:28;137.43;;;52.93;;
6947;SDS011;3513;47.664;9.162;2022-12-16T02:58:11;35.93;;;21.33;;
6947;SDS011;3513;47.664;9.162;2022-12-16T03:01:06;30.90;;;18.40;;
6947;SDS011;3513;47.664;9.162;2022-12-16T03:06:04;26.30;;;16.03;;
6947;SDS011;3513;47.664;9.162;2022-12-16T03:08:32;30.13;;;17.80;;
6947;SDS011;3513;47.664;9.162;2022-12-16T03:11:03;31.13;;;19.07;;
6947;SDS011;3513;47.664;9.162;2022-12-16T03:13:31;27.93;;;17.50;;
6947;SDS011;3513;47.664;9.162;2022-12-16T03:16:07;28.53;;;17.70;;
6947;SDS011;3513;47.664;9.162;2022-12-16T03:18:37;27.60;;;17.50;;
6947;SDS011;3513;47.664;9.162;2022-12-16T03:21:07;32.30;;;17.30;;
6947;SDS011;3513;47.664;9.162;2022-12-16T03:23:45;27.70;;;16.60;;
6947;SDS011;3513;47.664;9.162;2022-12-16T03:26:18;29.90;;;17.80;;
6947;SDS011;3513;47.664;9.162;2022-12-16T03:28:53;31.23;;;17.53;;
6947;SDS011;3513;47.664;9.162;2022-12-16T03:32:21;31.23;;;18.27;;
6947;SDS011;3513;47.664;9.162;2022-12-16T03:34:24;30.03;;;18.33;;
6947;SDS011;3513;47.664;9.162;2022-12-16T03:37:09;32.70;;;18.60;;
6947;SDS011;3513;47.664;9.162;2022-12-16T03:39:38;32.93;;;19.00;;
6947;SDS011;3513;47.664;9.162;2022-12-16T03:42:09;30.37;;;18.10;;
6947;SDS011;3513;47.664;9.162;2022-12-16T03:44:35;31.00;;;18.63;;
6947;SDS011;3513;47.664;9.162;2022-12-16T03:47:01;33.57;;;19.87;;
6947;SDS011;3513;47.664;9.162;2022-12-16T03:49:27;33.63;;;19.53;;
6947;SDS011;3513;47.664;9.162;2022-12-16T03:51:53;28.90;;;18.67;;
6947;SDS011;3513;47.664;9.162;2022-12-16T03:54:19;31.87;;;19.20;;
6947;SDS011;3513;47.664;9.162;2022-12-16T03:56:45;29.80;;;17.57;;
6947;SDS011;3513;47.664;9.162;2022-12-16T03:59:11;35.17;;;19.90;;
6947;SDS011;3513;47.664;9.162;2022-12-16T04:01:37;31.47;;;17.57;;
6947;SDS011;3513;47.664;9.162;2022-12-16T04:04:03;31.50;;;18.87;;
6947;SDS011;3513;47.664;9.162;2022-12-16T04:06:29;30.93;;;18.00;;
6947;SDS011;3513;47.664;9.162;2022-12-16T04:08:55;31.00;;;18.00;;
6947;SDS011;3513;47.664;9.162;2022-12-16T04:11:20;36.63;;;19.13;;
6947;SDS011;3513;47.664;9.162;2022-12-16T04:14:06;30.70;;;18.43;;
6947;SDS011;3513;47.664;9.162;2022-12-16T04:16:51;32.63;;;18.60;;
6947;SDS011;3513;47.664;9.162;2022-12-16T04:19:35;29.83;;;17.60;;
6947;SDS011;3513;47.664;9.162;2022-12-16T04:22:24;32.20;;;19.00;;
6947;SDS011;3513;47.664;9.162;2022-12-16T04:25:15;33.67;;;19.10;;
6947;SDS011;3513;47.664;9.162;2022-12-16T04:27:45;33.90;;;18.10;;
6947;SDS011;3513;47.664;9.162;2022-12-16T04:30:11;34.83;;;19.23;;
6947;SDS011;3513;47.664;9.162;2022-12-16T04:32:48;33.93;;;19.40;;
6947;SDS011;3513;47.664;9.162;2022-12-16T04:35:32;52.23;;;26.50;;
6947;SDS011;3513;47.664;9.162;2022-12-16T04:38:16;52.17;;;25.90;;
6947;SDS011;3513;47.664;9.162;2022-12-16T04:41:01;43.37;;;22.67;;
6947;SDS011;3513;47.664;9.162;2022-12-16T04:43:45;33.67;;;21.57;;
6947;SDS011;3513;47.664;9.162;2022-12-16T04:46:29;39.07;;;22.00;;
6947;SDS011;3513;47.664;9.162;2022-12-16T04:49:13;41.80;;;21.70;;
6947;SDS011;3513;47.664;9.162;2022-12-16T04:51:57;48.43;;;25.17;;
6947;SDS011;3513;47.664;9.162;2022-12-16T04:54:41;43.57;;;24.20;;
6947;SDS011;3513;47.664;9.162;2022-12-16T04:57:25;41.73;;;22.80;;
6947;SDS011;3513;47.664;9.162;2022-12-16T05:00:09;39.67;;;23.03;;
6947;SDS011;3513;47.664;9.162;2022-12-16T05:02:55;44.60;;;23.07;;
6947;SDS011;3513;47.664;9.162;2022-12-16T05:05:39;45.20;;;23.30;;
6947;SDS011;3513;47.664;9.162;2022-12-16T05:08:23;38.30;;;22.23;;
6947;SDS011;3513;47.664;9.162;2022-12-16T05:11:07;44.33;;;26.37;;
6947;SDS011;3513;47.664;9.162;2022-12-16T05:13:52;46.17;;;24.13;;
6947;SDS011;3513;47.664;9.162;2022-12-16T05:16:36;46.10;;;25.00;;
6947;SDS011;3513;47.664;9.162;2022-12-16T05:19:20;42.77;;;22.90;;
6947;SDS011;3513;47.664;9.162;2022-12-16T05:22:04;48.90;;;24.47;;
6947;SDS011;3513;47.664;9.162;2022-12-16T05:24:48;46.43;;;25.33;;
6947;SDS011;3513;47.664;9.162;2022-12-16T05:27:32;49.87;;;25.33;;
6947;SDS011;3513;47.664;9.162;2022-12-16T05:30:16;47.07;;;24.70;;
6947;SDS011;3513;47.664;9.162;2022-12-16T05:33:00;47.57;;;24.80;;
6947;SDS011;3513;47.664;9.162;2022-12-16T05:35:44;68.93;;;27.53;;
6947;SDS011;3513;47.664;9.162;2022-12-16T05:38:28;48.27;;;26.83;;
6947;SDS011;3513;47.664;9.162;2022-12-16T05:41:12;49.60;;;25.77;;
6947;SDS011;3513;47.664;9.162;2022-12-16T05:43:56;48.33;;;26.00;;
6947;SDS011;3513;47.664;9.162;2022-12-16T05:46:40;50.33;;;26.60;;
6947;SDS011;3513;47.664;9.162;2022-12-16T05:49:24;49.33;;;26.40;;
6947;SDS011;3513;47.664;9.162;2022-12-16T05:52:22;55.53;;;26.43;;
6947;SDS011;3513;47.664;9.162;2022-12-16T05:55:06;61.67;;;31.30;;
6947;SDS011;3513;47.664;9.162;2022-12-16T05:57:51;44.27;;;24.30;;
6947;SDS011;3513;47.664;9.162;2022-12-16T06:00:35;53.93;;;27.70;;
6947;SDS011;3513;47.664;9.162;2022-12-16T06:03:20;49.57;;;25.80;;
6947;SDS011;3513;47.664;9.162;2022-12-16T06:06:04;56.27;;;27.27;;
6947;SDS011;3513;47.664;9.162;2022-12-16T06:08:49;52.17;;;27.90;;
6947;SDS011;3513;47.664;9.162;2022-12-16T06:11:33;53.77;;;25.73;;
6947;SDS011;3513;47.664;9.162;2022-12-16T06:14:18;48.60;;;26.17;;
6947;SDS011;3513;47.664;9.162;2022-12-16T06:17:02;57.03;;;26.90;;
6947;SDS011;3513;47.664;9.162;2022-12-16T06:19:46;63.23;;;31.00;;
6947;SDS011;3513;47.664;9.162;2022-12-16T06:22:30;53.33;;;27.57;;
6947;SDS011;3513;47.664;9.162;2022-12-16T06:25:14;47.33;;;26.17;;
6947;SDS011;3513;47.664;9.162;2022-12-16T06:27:58;47.47;;;25.77;;
6947;SDS011;3513;47.664;9.162;2022-12-16T06:30:42;54.17;;;27.90;;
6947;SDS011;3513;47.664;9.162;2022-12-16T06:33:46;48.50;;;26.47;;
6947;SDS011;3513;47.664;9.162;2022-12-16T06:36:30;47.53;;;23.67;;
6947;SDS011;3513;47.664;9.162;2022-12-16T06:39:14;67.03;;;29.70;;
6947;SDS011;3513;47.664;9.162;2022-12-16T06:41:58;51.40;;;25.40;;
6947;SDS011;3513;47.664;9.162;2022-12-16T06:44:42;53.70;;;28.50;;
6947;SDS011;3513;47.664;9.162;2022-12-16T06:47:26;55.00;;;28.80;;
6947;SDS011;3513;47.664;9.162;2022-12-16T06:50:10;50.50;;;27.20;;
6947;SDS011;3513;47.664;9.162;2022-12-16T06:52:54;59.63;;;27.93;;
6947;SDS011;3513;47.664;9.162;2022-12-16T06:55:38;53.87;;;27.20;;
6947;SDS011;3513;47.664;9.162;2022-12-16T06:58:22;52.60;;;28.33;;
6947;SDS011;3513;47.664;9.162;2022-12-16T07:01:06;57.00;;;30.17;;
6947;SDS011;3513;47.664;9.162;2022-12-16T07:03:50;55.73;;;28.93;;
6947;SDS011;3513;47.664;9.162;2022-12-16T07:06:34;49.42;;;24.67;;
6947;SDS011;3513;47.664;9.162;2022-12-16T07:09:18;54.88;;;28.77;;
6947;SDS011;3513;47.664;9.162;2022-12-16T07:12:03;54.45;;;28.73;;
6947;SDS011;3513;47.664;9.162;2022-12-16T07:14:47;56.00;;;29.08;;
6947;SDS011;3513;47.664;9.162;2022-12-16T07:17:31;61.60;;;29.13;;
6947;SDS011;3513;47.664;9.162;2022-12-16T07:20:15;54.93;;;25.67;;
6947;SDS011;3513;47.664;9.162;2022-12-16T07:22:59;60.83;;;28.70;;
6947;SDS011;3513;47.664;9.162;2022-12-16T07:25:43;70.73;;;27.93;;
6947;SDS011;3513;47.664;9.162;2022-12-16T07:28:27;75.70;;;31.77;;
6947;SDS011;3513;47.664;9.162;2022-12-16T07:31:11;54.67;;;28.50;;
6947;SDS011;3513;47.664;9.162;2022-12-16T07:33:55;68.37;;;30.10;;
6947;SDS011;3513;47.664;9.162;2022-12-16T07:36:40;59.53;;;28.70;;
6947;SDS011;3513;47.664;9.162;2022-12-16T07:39:24;63.30;;;26.10;;
6947;SDS011;3513;47.664;9.162;2022-12-16T07:42:08;51.50;;;27.10;;
6947;SDS011;3513;47.664;9.162;2022-12-16T07:44:52;46.30;;;24.37;;
6947;SDS011;3513;47.664;9.162;2022-12-16T07:47:36;46.77;;;24.23;;
6947;SDS011;3513;47.664;9.162;2022-12-16T07:50:20;54.00;;;26.80;;
6947;SDS011;3513;47.664;9.162;2022-12-16T07:53:04;48.70;;;27.07;;
6947;SDS011;3513;47.664;9.162;2022-12-16T07:55:48;48.70;;;24.40;;
6947;SDS011;3513;47.664;9.162;2022-12-16T07:58:33;64.57;;;27.60;;
6947;SDS011;3513;47.664;9.162;2022-12-16T08:01:17;49.97;;;26.00;;
6947;SDS011;3513;47.664;9.162;2022-12-16T08:04:01;50.83;;;26.00;;
6947;SDS011;3513;47.664;9.162;2022-12-16T08:06:45;47.23;;;24.57;;
6947;SDS011;3513;47.664;9.162;2022-12-16T08:09:29;49.20;;;24.83;;
6947;SDS011;3513;47.664;9.162;2022-12-16T08:12:13;57.80;;;26.60;;
6947;SDS011;3513;47.664;9.162;2022-12-16T08:14:57;55.80;;;26.87;;
6947;SDS011;3513;47.664;9.162;2022-12-16T08:17:58;57.80;;;29.50;;
6947;SDS011;3513;47.664;9.162;2022-12-16T08:20:42;71.57;;;30.37;;
6947;SDS011;3513;47.664;9.162;2022-12-16T08:23:27;53.10;;;25.67;;
6947;SDS011;3513;47.664;9.162;2022-12-16T08:26:11;46.77;;;24.17;;
6947;SDS011;3513;47.664;9.162;2022-12-16T08:28:55;53.43;;;24.83;;
6947;SDS011;3513;47.664;9.162;2022-12-16T08:31:40;49.67;;;24.17;;
6947;SDS011;3513;47.664;9.162;2022-12-16T08:34:24;44.00;;;24.97;;
6947;SDS011;3513;47.664;9.162;2022-12-16T08:37:08;44.87;;;24.57;;
6947;SDS011;3513;47.664;9.162;2022-12-16T08:39:52;45.70;;;24.17;;
6947;SDS011;3513;47.664;9.162;2022-12-16T08:42:36;56.17;;;25.00;;
6947;SDS011;3513;47.664;9.162;2022-12-16T08:45:20;44.73;;;24.40;;
6947;SDS011;3513;47.664;9.162;2022-12-16T08:48:04;49.80;;;25.77;;
6947;SDS011;3513;47.664;9.162;2022-12-16T08:50:48;61.40;;;28.20;;
6947;SDS011;3513;47.664;9.162;2022-12-16T08:53:33;57.40;;;27.80;;
6947;SDS011;3513;47.664;9.162;2022-12-16T08:56:17;54.23;;;28.17;;
6947;SDS011;3513;47.664;9.162;2022-12-16T08:59:01;53.70;;;27.53;;
6947;SDS011;3513;47.664;9.162;2022-12-16T09:01:45;71.63;;;30.30;;
6947;SDS011;3513;47.664;9.162;2022-12-16T09:04:29;63.93;;;30.33;;
6947;SDS011;3513;47.664;9.162;2022-12-16T09:07:13;57.07;;;29.77;;
6947;SDS011;3513;47.664;9.162;2022-12-16T09:09:57;61.93;;;30.97;;
6947;SDS011;3513;47.664;9.162;2022-12-16T09:12:41;60.80;;;29.97;;
6947;SDS011;3513;47.664;9.162;2022-12-16T09:15:25;57.20;;;28.90;;
6947;SDS011;3513;47.664;9.162;2022-12-16T09:18:10;76.60;;;35.97;;
6947;SDS011;3513;47.664;9.162;2022-12-16T09:20:54;67.43;;;32.37;;
6947;SDS011;3513;47.664;9.162;2022-12-16T09:23:38;61.97;;;28.37;;
6947;SDS011;3513;47.664;9.162;2022-12-16T09:26:22;59.60;;;29.40;;
6947;SDS011;3513;47.664;9.162;2022-12-16T09:29:06;54.60;;;29.63;;
6947;SDS011;3513;47.664;9.162;2022-12-16T09:31:50;64.83;;;30.57;;
6947;SDS011;3513;47.664;9.162;2022-12-16T09:34:34;57.80;;;30.50;;
6947;SDS011;3513;47.664;9.162;2022-12-16T09:37:18;57.53;;;28.60;;
6947;SDS011;3513;47.664;9.162;2022-12-16T09:40:03;61.43;;;30.67;;
6947;SDS011;3513;47.664;9.162;2022-12-16T09:42:48;62.07;;;31.03;;
6947;SDS011;3513;47.664;9.162;2022-12-16T09:48:33;63.70;;;31.47;;
6947;SDS011;3513;47.664;9.162;2022-12-16T09:51:21;61.40;;;31.53;;
6947;SDS011;3513;47.664;9.162;2022-12-16T09:54:08;57.23;;;28.60;;
6947;SDS011;3513;47.664;9.162;2022-12-16T09:56:58;52.60;;;27.67;;
6947;SDS011;3513;47.664;9.162;2022-12-16T09:59:44;56.00;;;29.30;;
6947;SDS011;3513;47.664;9.162;2022-12-16T10:02:36;61.53;;;29.93;;
6947;SDS011;3513;47.664;9.162;2022-12-16T10:05:25;54.10;;;28.50;;
6947;SDS011;3513;47.664;9.162;2022-12-16T10:08:24;62.23;;;30.67;;
6947;SDS011;3513;47.664;9.162;2022-12-16T10:11:18;64.17;;;30.47;;
6947;SDS011;3513;47.664;9.162;2022-12-16T10:14:09;62.80;;;31.77;;
6947;SDS011;3513;47.664;9.162;2022-12-16T10:26:00;55.10;;;27.87;;
6947;SDS011;3513;47.664;9.162;2022-12-16T10:28:51;54.90;;;28.10;;
6947;SDS011;3513;47.664;9.162;2022-12-16T10:31:42;62.10;;;27.77;;
6947;SDS011;3513;47.664;9.162;2022-12-16T10:34:27;55.80;;;28.43;;
6947;SDS011;3513;47.664;9.162;2022-12-16T10:37:13;60.50;;;30.70;;
6947;SDS011;3513;47.664;9.162;2022-12-16T10:40:03;56.83;;;29.07;;
6947;SDS011;3513;47.664;9.162;2022-12-16T10:42:55;62.80;;;29.80;;
6947;SDS011;3513;47.664;9.162;2022-12-16T10:45:52;57.43;;;29.53;;
6947;SDS011;3513;47.664;9.162;2022-12-16T10:48:39;70.47;;;31.77;;
6947;SDS011;3513;47.664;9.162;2022-12-16T10:51:25;72.83;;;32.03;;
6947;SDS011;3513;47.664;9.162;2022-12-16T10:54:27;58.27;;;30.50;;
6947;SDS011;3513;47.664;9.162;2022-12-16T11:00:44;59.53;;;30.23;;
6947;SDS011;3513;47.664;9.162;2022-12-16T11:03:30;59.30;;;29.90;;
6947;SDS011;3513;47.664;9.162;2022-12-16T11:06:24;58.33;;;29.10;;
6947;SDS011;3513;47.664;9.162;2022-12-16T11:12:12;55.03;;;29.17;;
6947;SDS011;3513;47.664;9.162;2022-12-16T11:14:58;55.63;;;29.63;;
6947;SDS011;3513;47.664;9.162;2022-12-16T11:17:57;53.87;;;28.63;;
6947;SDS011;3513;47.664;9.162;2022-12-16T11:20:45;51.47;;;26.17;;
6947;SDS011;3513;47.664;9.162;2022-12-16T11:23:45;50.57;;;28.57;;
6947;SDS011;3513;47.664;9.162;2022-12-16T11:26:29;56.17;;;29.73;;
6947;SDS011;3513;47.664;9.162;2022-12-16T11:29:14;54.27;;;28.70;;
6947;SDS011;3513;47.664;9.162;2022-12-16T11:35:04;62.20;;;32.10;;
6947;SDS011;3513;47.664;9.162;2022-12-16T11:37:54;58.13;;;29.17;;
6947;SDS011;3513;47.664;9.162;2022-12-16T11:40:40;82.17;;;31.47;;
6947;SDS011;3513;47.664;9.162;2022-12-16T11:43:25;66.10;;;31.43;;
6947;SDS011;3513;47.664;9.162;2022-12-16T11:46:26;64.33;;;28.97;;
6947;SDS011;3513;47.664;9.162;2022-12-16T11:49:26;61.33;;;28.23;;
6947;SDS011;3513;47.664;9.162;2022-12-16T11:52:15;52.47;;;26.40;;
6947;SDS011;3513;47.664;9.162;2022-12-16T11:58:13;45.87;;;26.90;;
6947;SDS011;3513;47.664;9.162;2022-12-16T12:04:07;48.23;;;27.37;;
6947;SDS011;3513;47.664;9.162;2022-12-16T12:10:01;47.70;;;24.30;;
6947;SDS011;3513;47.664;9.162;2022-12-16T12:12:59;51.73;;;26.87;;
6947;SDS011;3513;47.664;9.162;2022-12-16T12:16:04;50.60;;;27.17;;
6947;SDS011;3513;47.664;9.162;2022-12-16T12:18:59;57.90;;;28.47;;
6947;SDS011;3513;47.664;9.162;2022-12-16T12:21:59;47.30;;;26.13;;
6947;SDS011;3513;47.664;9.162;2022-12-16T12:24:54;52.57;;;26.27;;
6947;SDS011;3513;47.664;9.162;2022-12-16T12:27:59;67.23;;;29.27;;
6947;SDS011;3513;47.664;9.162;2022-12-16T12:30:52;46.60;;;26.30;;
6947;SDS011;3513;47.664;9.162;2022-12-16T12:34:08;55.23;;;28.50;;
6947;SDS011;3513;47.664;9.162;2022-12-16T12:37:15;48.73;;;26.43;;
6947;SDS011;3513;47.664;9.162;2022-12-16T12:43:00;61.87;;;28.77;;
6947;SDS011;3513;47.664;9.162;2022-12-16T12:46:05;54.03;;;27.37;;
6947;SDS011;3513;47.664;9.162;2022-12-16T12:49:03;57.37;;;31.03;;
6947;SDS011;3513;47.664;9.162;2022-12-16T12:58:11;47.93;;;27.30;;
6947;SDS011;3513;47.664;9.162;2022-12-16T13:00:57;47.10;;;27.50;;
6947;SDS011;3513;47.664;9.162;2022-12-16T13:03:49;59.57;;;27.80;;
6947;SDS011;3513;47.664;9.162;2022-12-16T13:06:46;52.20;;;27.57;;
6947;SDS011;3513;47.664;9.162;2022-12-16T13:09:31;49.00;;;25.47;;
6947;SDS011;3513;47.664;9.162;2022-12-16T13:12:19;45.73;;;26.37;;
6947;SDS011;3513;47.664;9.162;2022-12-16T13:15:05;46.00;;;26.00;;
6947;SDS011;3513;47.664;9.162;2022-12-16T13:20:45;43.90;;;24.40;;
6947;SDS011;3513;47.664;9.162;2022-12-16T13:23:34;55.53;;;25.90;;
6947;SDS011;3513;47.664;9.162;2022-12-16T13:26:26;45.90;;;23.40;;
6947;SDS011;3513;47.664;9.162;2022-12-16T13:29:32;46.70;;;23.90;;
6947;SDS011;3513;47.664;9.162;2022-12-16T13:37:58;45.07;;;26.20;;
6947;SDS011;3513;47.664;9.162;2022-12-16T13:44:07;56.07;;;26.00;;
6947;SDS011;3513;47.664;9.162;2022-12-16T13:46:52;43.37;;;25.90;;
6947;SDS011;3513;47.664;9.162;2022-12-16T13:49:43;46.30;;;23.60;;
6947;SDS011;3513;47.664;9.162;2022-12-16T13:55:47;48.03;;;26.40;;
6947;SDS011;3513;47.664;9.162;2022-12-16T14:04:35;51.70;;;28.00;;
6947;SDS011;3513;47.664;9.162;2022-12-16T14:07:37;53.07;;;29.27;;
6947;SDS011;3513;47.664;9.162;2022-12-16T14:10:23;59.70;;;31.63;;
6947;SDS011;3513;47.664;9.162;2022-12-16T14:19:20;56.97;;;28.30;;
6947;SDS011;3513;47.664;9.162;2022-12-16T14:25:30;56.10;;;31.13;;
6947;SDS011;3513;47.664;9.162;2022-12-16T14:34:16;56.10;;;29.33;;
6947;SDS011;3513;47.664;9.162;2022-12-16T14:37:52;57.60;;;29.67;;
6947;SDS011;3513;47.664;9.162;2022-12-16T14:43:15;58.43;;;30.57;;
6947;SDS011;3513;47.664;9.162;2022-12-16T14:46:04;55.77;;;30.27;;
6947;SDS011;3513;47.664;9.162;2022-12-16T14:48:49;59.53;;;30.30;;
6947;SDS011;3513;47.664;9.162;2022-12-16T14:51:35;58.10;;;31.07;;
6947;SDS011;3513;47.664;9.162;2022-12-16T14:54:40;59.57;;;32.20;;
6947;SDS011;3513;47.664;9.162;2022-12-16T14:57:27;62.27;;;31.87;;
6947;SDS011;3513;47.664;9.162;2022-12-16T15:06:13;54.80;;;29.47;;
6947;SDS011;3513;47.664;9.162;2022-12-16T15:09:17;60.10;;;31.30;;
6947;SDS011;3513;47.664;9.162;2022-12-16T15:12:07;57.90;;;27.27;;
6947;SDS011;3513;47.664;9.162;2022-12-16T15:14:52;49.47;;;27.07;;
6947;SDS011;3513;47.664;9.162;2022-12-16T15:17:43;60.63;;;31.03;;
6947;SDS011;3513;47.664;9.162;2022-12-16T15:20:32;51.13;;;28.67;;
6947;SDS011;3513;47.664;9.162;2022-12-16T15:26:18;64.73;;;29.07;;
6947;SDS011;3513;47.664;9.162;2022-12-16T15:35:11;61.07;;;28.70;;
6947;SDS011;3513;47.664;9.162;2022-12-16T15:38:17;55.47;;;31.67;;
6947;SDS011;3513;47.664;9.162;2022-12-16T15:41:02;68.13;;;32.13;;
6947;SDS011;3513;47.664;9.162;2022-12-16T15:43:49;67.60;;;33.20;;
6947;SDS011;3513;47.664;9.162;2022-12-16T15:46:35;60.90;;;32.50;;
6947;SDS011;3513;47.664;9.162;2022-12-16T15:49:33;59.60;;;30.90;;
6947;SDS011;3513;47.664;9.162;2022-12-16T15:52:21;62.13;;;31.17;;
6947;SDS011;3513;47.664;9.162;2022-12-16T15:55:34;62.33;;;31.43;;
6947;SDS011;3513;47.664;9.162;2022-12-16T15:58:25;58.83;;;31.37;;
6947;SDS011;3513;47.664;9.162;2022-12-16T16:01:19;69.07;;;33.67;;
6947;SDS011;3513;47.664;9.162;2022-12-16T16:04:27;67.57;;;33.10;;
6947;SDS011;3513;47.664;9.162;2022-12-16T16:10:09;62.80;;;29.67;;
6947;SDS011;3513;47.664;9.162;2022-12-16T16:13:03;58.10;;;26.43;;
6947;SDS011;3513;47.664;9.162;2022-12-16T16:15:47;48.97;;;26.77;;
6947;SDS011;3513;47.664;9.162;2022-12-16T16:18:32;55.10;;;27.93;;
6947;SDS011;3513;47.664;9.162;2022-12-16T16:21:16;60.43;;;27.00;;
6947;SDS011;3513;47.664;9.162;2022-12-16T16:24:00;62.93;;;29.13;;
6947;SDS011;3513;47.664;9.162;2022-12-16T16:26:44;54.60;;;26.27;;
6947;SDS011;3513;47.664;9.162;2022-12-16T16:29:28;56.17;;;24.87;;
6947;SDS011;3513;47.664;9.162;2022-12-16T16:32:13;53.43;;;26.67;;
6947;SDS011;3513;47.664;9.162;2022-12-16T16:34:57;66.10;;;26.13;;
6947;SDS011;3513;47.664;9.162;2022-12-16T16:37:41;52.23;;;25.07;;
6947;SDS011;3513;47.664;9.162;2022-12-16T16:40:33;47.53;;;24.67;;
6947;SDS011;3513;47.664;9.162;2022-12-16T16:43:19;50.47;;;26.20;;
6947;SDS011;3513;47.664;9.162;2022-12-16T16:49:00;48.67;;;23.97;;
6947;SDS011;3513;47.664;9.162;2022-12-16T16:51:44;43.23;;;24.23;;
6947;SDS011;3513;47.664;9.162;2022-12-16T16:54:28;51.60;;;23.93;;
6947;SDS011;3513;47.664;9.162;2022-12-16T16:57:12;42.30;;;22.50;;
6947;SDS011;3513;47.664;9.162;2022-12-16T16:59:57;48.87;;;21.83;;
6947;SDS011;3513;47.664;9.162;2022-12-16T17:02:41;37.80;;;19.60;;
6947;SDS011;3513;47.664;9.162;2022-12-16T17:05:25;34.50;;;18.87;;
6947;SDS011;3513;47.664;9.162;2022-12-16T17:08:09;47.20;;;22.10;;
6947;SDS011;3513;47.664;9.162;2022-12-16T17:10:53;40.47;;;21.10;;
6947;SDS011;3513;47.664;9.162;2022-12-16T17:13:37;47.40;;;23.43;;
6947;SDS011;3513;47.664;9.162;2022-12-16T17:16:21;41.33;;;21.80;;
6947;SDS011;3513;47.664;9.162;2022-12-16T17:19:05;47.73;;;23.60;;
6947;SDS011;3513;47.664;9.162;2022-12-16T17:21:49;42.67;;;21.63;;
6947;SDS011;3513;47.664;9.162;2022-12-16T17:24:33;103.53;;;55.63;;
6947;SDS011;3513;47.664;9.162;2022-12-16T17:27:19;52.77;;;24.20;;
6947;SDS011;3513;47.664;9.162;2022-12-16T17:30:13;48.33;;;24.37;;
6947;SDS011;3513;47.664;9.162;2022-12-16T17:33:00;49.00;;;25.83;;
6947;SDS011;3513;47.664;9.162;2022-12-16T17:35:46;48.83;;;25.50;;
6947;SDS011;3513;47.664;9.162;2022-12-16T17:38:32;54.37;;;26.47;;
6947;SDS011;3513;47.664;9.162;2022-12-16T17:41:20;58.10;;;25.73;;
6947;SDS011;3513;47.664;9.162;2022-12-16T17:44:04;44.63;;;23.60;;
6947;SDS011;3513;47.664;9.162;2022-12-16T17:46:49;43.83;;;23.17;;
6947;SDS011;3513;47.664;9.162;2022-12-16T17:49:33;54.30;;;26.07;;
6947;SDS011;3513;47.664;9.162;2022-12-16T17:52:17;50.30;;;23.10;;
6947;SDS011;3513;47.664;9.162;2022-12-16T17:55:01;47.83;;;24.77;;
6947;SDS011;3513;47.664;9.162;2022-12-16T17:57:45;50.80;;;24.88;;
6947;SDS011;3513;47.664;9.162;2022-12-16T18:00:30;38.83;;;20.48;;
6947;SDS011;3513;47.664;9.162;2022-12-16T18:03:14;40.97;;;21.43;;
6947;SDS011;3513;47.664;9.162;2022-12-16T18:05:58;45.92;;;22.95;;
6947;SDS011;3513;47.664;9.162;2022-12-16T18:08:42;47.03;;;22.25;;
6947;SDS011;3513;47.664;9.162;2022-12-16T18:11:26;44.05;;;22.40;;
6947;SDS011;3513;47.664;9.162;2022-12-16T18:14:12;45.45;;;21.20;;
6947;SDS011;3513;47.664;9.162;2022-12-16T18:16:56;42.15;;;22.02;;
6947;SDS011;3513;47.664;9.162;2022-12-16T18:19:40;38.42;;;20.42;;
6947;SDS011;3513;47.664;9.162;2022-12-16T18:22:35;44.90;;;21.65;;